Terminal Aerodrome Forecast
Issued by NWS Jacksonville, FL

Home | Current Version | Previous Version | Text Only | Print | Product List | Glossary On
Versions: 1 2 3 4 5 6 7 8 9 10 11 12 13 14 15 16 17 18 19 20 21 22 23 24 25 26 27 28 29 30
000
FTUS42 KJAX 251700
TAFGNV
TAF
KGNV 251721Z 2518/2618 32008KT P6SM SCT025 BKN100
     FM252000 33008KT P6SM SCT025 SCT100
     FM260100 01003KT P6SM SCT250
     FM260800 05003KT P6SM SCT250
     FM261400 06005KT P6SM SCT250=

USA.gov is the U.S. government's official web portal to all federal, state and local government web resources and services.